sensor_id;sensor_type;location;lat;lon;timestamp;pressure;altitude;pressure_sealevel;temperature;humidity
43119;BME280;28729;49.838;8.650;2023-02-18T00:02:27;100579.38;;;12.74;100.00
43119;BME280;28729;49.838;8.650;2023-02-18T00:06:32;100581.91;;;12.76;100.00
43119;BME280;28729;49.838;8.650;2023-02-18T00:10:34;100575.06;;;12.67;100.00
43119;BME280;28729;49.838;8.650;2023-02-18T00:14:37;100580.38;;;12.68;100.00
43119;BME280;28729;49.838;8.650;2023-02-18T00:18:39;100577.97;;;12.60;100.00
43119;BME280;28729;49.838;8.650;2023-02-18T00:22:40;100574.88;;;12.57;100.00
43119;BME280;28729;49.838;8.650;2023-02-18T00:26:43;100582.81;;;12.53;100.00
43119;BME280;28729;49.838;8.650;2023-02-18T00:30:44;100581.97;;;12.52;100.00
43119;BME280;28729;49.838;8.650;2023-02-18T00:34:46;100588.22;;;12.48;100.00
43119;BME280;28729;49.838;8.650;2023-02-18T00:38:51;100578.50;;;12.45;100.00
43119;BME280;28729;49.838;8.650;2023-02-18T00:42:53;100569.84;;;12.42;100.00
43119;BME280;28729;49.838;8.650;2023-02-18T00:46:55;100569.50;;;12.38;100.00
43119;BME280;28729;49.838;8.650;2023-02-18T00:50:56;100562.69;;;12.29;100.00
43119;BME280;28729;49.838;8.650;2023-02-18T00:54:58;100567.72;;;12.32;100.00
43119;BME280;28729;49.838;8.650;2023-02-18T00:58:59;100572.41;;;12.31;100.00
43119;BME280;28729;49.838;8.650;2023-02-18T01:03:01;100575.53;;;12.35;100.00
43119;BME280;28729;49.838;8.650;2023-02-18T01:07:03;100582.97;;;12.35;100.00
43119;BME280;28729;49.838;8.650;2023-02-18T01:11:05;100579.72;;;12.38;100.00
43119;BME280;28729;49.838;8.650;2023-02-18T01:15:07;100582.09;;;12.34;100.00
43119;BME280;28729;49.838;8.650;2023-02-18T01:19:09;100580.44;;;12.33;100.00
43119;BME280;28729;49.838;8.650;2023-02-18T01:23:12;100582.38;;;12.32;100.00
43119;BME280;28729;49.838;8.650;2023-02-18T01:27:17;100573.59;;;12.36;100.00
43119;BME280;28729;49.838;8.650;2023-02-18T01:31:19;100577.53;;;12.40;100.00
43119;BME280;28729;49.838;8.650;2023-02-18T01:35:21;100578.63;;;12.39;100.00
43119;BME280;28729;49.838;8.650;2023-02-18T01:39:22;100574.69;;;12.35;100.00
43119;BME280;28729;49.838;8.650;2023-02-18T01:43:24;100568.28;;;12.34;100.00
43119;BME280;28729;49.838;8.650;2023-02-18T01:47:26;100558.69;;;12.37;100.00
43119;BME280;28729;49.838;8.650;2023-02-18T01:51:31;100564.94;;;12.32;100.00
43119;BME280;28729;49.838;8.650;2023-02-18T01:55:37;100559.66;;;12.30;100.00
43119;BME280;28729;49.838;8.650;2023-02-18T01:59:43;100560.13;;;12.27;100.00
43119;BME280;28729;49.838;8.650;2023-02-18T02:03:46;100545.25;;;12.28;100.00
43119;BME280;28729;49.838;8.650;2023-02-18T02:07:50;100542.72;;;12.27;100.00
43119;BME280;28729;49.838;8.650;2023-02-18T02:16:31;100517.38;;;12.18;100.00
43119;BME280;28729;49.838;8.650;2023-02-18T02:29:39;100521.72;;;12.14;100.00
43119;BME280;28729;49.838;8.650;2023-02-18T02:34:31;100519.19;;;12.13;100.00
43119;BME280;28729;49.838;8.650;2023-02-18T02:38:48;100510.69;;;12.14;100.00
43119;BME280;28729;49.838;8.650;2023-02-18T02:47:50;100509.72;;;12.08;100.00
43119;BME280;28729;49.838;8.650;2023-02-18T02:56:11;100492.69;;;12.00;100.00
43119;BME280;28729;49.838;8.650;2023-02-18T03:00:16;100479.47;;;12.02;100.00
43119;BME280;28729;49.838;8.650;2023-02-18T03:13:59;100479.00;;;12.05;100.00
43119;BME280;28729;49.838;8.650;2023-02-18T03:18:35;100489.44;;;12.03;100.00
43119;BME280;28729;49.838;8.650;2023-02-18T03:22:43;100487.28;;;12.05;100.00
43119;BME280;28729;49.838;8.650;2023-02-18T03:26:50;100485.34;;;12.05;100.00
43119;BME280;28729;49.838;8.650;2023-02-18T03:31:04;100484.59;;;12.10;100.00
43119;BME280;28729;49.838;8.650;2023-02-18T03:35:12;100479.19;;;12.15;100.00
43119;BME280;28729;49.838;8.650;2023-02-18T03:39:16;100482.56;;;12.17;100.00
43119;BME280;28729;49.838;8.650;2023-02-18T03:43:18;100485.06;;;12.19;100.00
43119;BME280;28729;49.838;8.650;2023-02-18T03:47:20;100479.31;;;12.20;100.00
43119;BME280;28729;49.838;8.650;2023-02-18T03:51:22;100489.75;;;12.18;100.00
43119;BME280;28729;49.838;8.650;2023-02-18T03:55:24;100491.81;;;12.23;100.00
43119;BME280;28729;49.838;8.650;2023-02-18T03:59:25;100491.53;;;12.24;100.00
43119;BME280;28729;49.838;8.650;2023-02-18T04:03:27;100487.69;;;12.25;100.00
43119;BME280;28729;49.838;8.650;2023-02-18T04:07:29;100488.28;;;12.27;100.00
43119;BME280;28729;49.838;8.650;2023-02-18T04:11:30;100487.81;;;12.30;100.00
43119;BME280;28729;49.838;8.650;2023-02-18T04:15:32;100483.72;;;12.33;100.00
43119;BME280;28729;49.838;8.650;2023-02-18T04:19:35;100493.31;;;12.30;100.00
43119;BME280;28729;49.838;8.650;2023-02-18T04:23:36;100477.25;;;12.27;100.00
43119;BME280;28729;49.838;8.650;2023-02-18T04:27:38;100480.75;;;12.23;100.00
43119;BME280;28729;49.838;8.650;2023-02-18T04:31:39;100489.28;;;12.21;100.00
43119;BME280;28729;49.838;8.650;2023-02-18T04:35:42;100475.22;;;12.23;100.00
43119;BME280;28729;49.838;8.650;2023-02-18T04:39:44;100477.88;;;12.18;100.00
43119;BME280;28729;49.838;8.650;2023-02-18T04:43:45;100474.84;;;12.19;100.00
43119;BME280;28729;49.838;8.650;2023-02-18T04:47:47;100461.03;;;12.19;100.00
43119;BME280;28729;49.838;8.650;2023-02-18T04:51:48;100459.38;;;12.18;100.00
43119;BME280;28729;49.838;8.650;2023-02-18T04:55:51;100461.91;;;12.20;100.00
43119;BME280;28729;49.838;8.650;2023-02-18T04:59:53;100469.59;;;12.18;100.00
43119;BME280;28729;49.838;8.650;2023-02-18T05:03:54;100483.75;;;12.21;100.00
43119;BME280;28729;49.838;8.650;2023-02-18T05:07:56;100484.34;;;12.23;100.00
43119;BME280;28729;49.838;8.650;2023-02-18T05:11:58;100483.41;;;12.18;100.00
43119;BME280;28729;49.838;8.650;2023-02-18T05:16:00;100479.31;;;12.20;100.00
43119;BME280;28729;49.838;8.650;2023-02-18T05:20:02;100475.34;;;12.16;100.00
43119;BME280;28729;49.838;8.650;2023-02-18T05:24:04;100464.91;;;12.18;100.00
43119;BME280;28729;49.838;8.650;2023-02-18T05:28:05;100457.44;;;12.19;100.00
43119;BME280;28729;49.838;8.650;2023-02-18T05:32:07;100454.94;;;12.17;100.00
43119;BME280;28729;49.838;8.650;2023-02-18T05:36:09;100455.50;;;12.19;100.00
43119;BME280;28729;49.838;8.650;2023-02-18T05:40:11;100448.09;;;12.20;100.00
43119;BME280;28729;49.838;8.650;2023-02-18T05:44:12;100437.41;;;12.12;100.00
43119;BME280;28729;49.838;8.650;2023-02-18T05:48:33;100441.00;;;12.12;100.00
43119;BME280;28729;49.838;8.650;2023-02-18T05:52:34;100443.44;;;12.08;100.00
43119;BME280;28729;49.838;8.650;2023-02-18T05:56:36;100430.44;;;12.09;100.00
43119;BME280;28729;49.838;8.650;2023-02-18T06:00:37;100444.88;;;12.11;100.00
43119;BME280;28729;49.838;8.650;2023-02-18T06:04:39;100451.38;;;12.05;100.00
43119;BME280;28729;49.838;8.650;2023-02-18T06:08:41;100447.84;;;12.09;100.00
43119;BME280;28729;49.838;8.650;2023-02-18T06:12:43;100452.66;;;12.14;98.88
43119;BME280;28729;49.838;8.650;2023-02-18T06:16:44;100444.03;;;12.11;96.41
43119;BME280;28729;49.838;8.650;2023-02-18T06:20:47;100441.00;;;12.12;94.90
43119;BME280;28729;49.838;8.650;2023-02-18T06:24:49;100426.22;;;12.18;95.89
43119;BME280;28729;49.838;8.650;2023-02-18T06:28:51;100437.75;;;12.15;95.58
43119;BME280;28729;49.838;8.650;2023-02-18T06:32:53;100431.50;;;12.20;94.80
43119;BME280;28729;49.838;8.650;2023-02-18T06:36:54;100433.19;;;12.21;94.73
43119;BME280;28729;49.838;8.650;2023-02-18T06:40:56;100432.56;;;12.19;93.42
43119;BME280;28729;49.838;8.650;2023-02-18T06:44:58;100440.25;;;12.28;93.63
43119;BME280;28729;49.838;8.650;2023-02-18T06:48:59;100446.25;;;12.25;93.00
43119;BME280;28729;49.838;8.650;2023-02-18T06:53:01;100437.72;;;12.27;92.87
43119;BME280;28729;49.838;8.650;2023-02-18T06:57:03;100444.19;;;12.32;93.21
43119;BME280;28729;49.838;8.650;2023-02-18T07:01:04;100440.72;;;12.25;94.38
43119;BME280;28729;49.838;8.650;2023-02-18T07:05:06;100423.66;;;12.28;94.57
43119;BME280;28729;49.838;8.650;2023-02-18T07:09:08;100422.47;;;12.24;95.87
43119;BME280;28729;49.838;8.650;2023-02-18T07:13:10;100420.03;;;12.28;96.53
43119;BME280;28729;49.838;8.650;2023-02-18T07:17:12;100418.72;;;12.30;96.98
43119;BME280;28729;49.838;8.650;2023-02-18T07:21:13;100400.69;;;12.28;97.51
43119;BME280;28729;49.838;8.650;2023-02-18T07:25:15;100397.59;;;12.24;97.43
43119;BME280;28729;49.838;8.650;2023-02-18T07:29:17;100396.88;;;12.29;97.80
43119;BME280;28729;49.838;8.650;2023-02-18T07:33:18;100386.06;;;12.27;97.87
43119;BME280;28729;49.838;8.650;2023-02-18T07:37:20;100398.81;;;12.28;97.89
43119;BME280;28729;49.838;8.650;2023-02-18T07:41:22;100397.09;;;12.27;97.90
43119;BME280;28729;49.838;8.650;2023-02-18T07:45:24;100407.44;;;12.32;97.79
43119;BME280;28729;49.838;8.650;2023-02-18T07:49:26;100406.00;;;12.29;97.45
43119;BME280;28729;49.838;8.650;2023-02-18T07:53:28;100397.53;;;12.36;96.91
43119;BME280;28729;49.838;8.650;2023-02-18T07:57:30;100411.63;;;12.35;96.37
43119;BME280;28729;49.838;8.650;2023-02-18T08:01:31;100414.97;;;12.37;96.09
43119;BME280;28729;49.838;8.650;2023-02-18T08:05:33;100409.69;;;12.35;96.20
43119;BME280;28729;49.838;8.650;2023-02-18T08:09:35;100405.13;;;12.41;95.60
43119;BME280;28729;49.838;8.650;2023-02-18T08:13:36;100416.00;;;12.47;95.38
43119;BME280;28729;49.838;8.650;2023-02-18T08:17:38;100413.13;;;12.42;95.34
43119;BME280;28729;49.838;8.650;2023-02-18T08:21:40;100411.22;;;12.43;93.98
43119;BME280;28729;49.838;8.650;2023-02-18T08:25:46;100403.13;;;12.53;93.56
43119;BME280;28729;49.838;8.650;2023-02-18T08:29:50;100409.91;;;12.62;93.09
43119;BME280;28729;49.838;8.650;2023-02-18T08:33:54;100406.91;;;12.64;92.58
43119;BME280;28729;49.838;8.650;2023-02-18T08:37:55;100417.13;;;12.63;86.88
43119;BME280;28729;49.838;8.650;2023-02-18T08:41:59;100415.69;;;12.61;86.98
43119;BME280;28729;49.838;8.650;2023-02-18T08:46:01;100432.81;;;12.74;86.89
43119;BME280;28729;49.838;8.650;2023-02-18T08:50:04;100434.47;;;12.75;85.24
43119;BME280;28729;49.838;8.650;2023-02-18T08:54:07;100435.06;;;12.77;82.48
43119;BME280;28729;49.838;8.650;2023-02-18T08:58:09;100438.00;;;12.88;81.18
43119;BME280;28729;49.838;8.650;2023-02-18T09:02:13;100441.28;;;12.85;79.90
43119;BME280;28729;49.838;8.650;2023-02-18T09:06:15;100453.22;;;12.85;78.09
43119;BME280;28729;49.838;8.650;2023-02-18T09:10:17;100442.38;;;12.84;78.56
43119;BME280;28729;49.838;8.650;2023-02-18T09:14:18;100450.84;;;12.77;78.20
43119;BME280;28729;49.838;8.650;2023-02-18T09:18:20;100444.47;;;12.76;77.69
43119;BME280;28729;49.838;8.650;2023-02-18T09:22:21;100428.00;;;12.70;76.75
43119;BME280;28729;49.838;8.650;2023-02-18T09:26:23;100436.84;;;12.84;76.47
43119;BME280;28729;49.838;8.650;2023-02-18T09:30:26;100431.50;;;12.94;75.62
43119;BME280;28729;49.838;8.650;2023-02-18T09:34:28;100426.53;;;12.96;74.43
43119;BME280;28729;49.838;8.650;2023-02-18T09:38:30;100432.84;;;13.08;74.85
43119;BME280;28729;49.838;8.650;2023-02-18T09:42:33;100437.88;;;13.11;74.54
43119;BME280;28729;49.838;8.650;2023-02-18T09:46:41;100428.72;;;13.11;73.70
43119;BME280;28729;49.838;8.650;2023-02-18T09:50:46;100424.06;;;13.28;74.07
43119;BME280;28729;49.838;8.650;2023-02-18T09:54:53;100423.63;;;13.19;73.20
43119;BME280;28729;49.838;8.650;2023-02-18T09:58:54;100408.13;;;13.18;73.50
43119;BME280;28729;49.838;8.650;2023-02-18T10:03:01;100400.38;;;13.20;73.56
43119;BME280;28729;49.838;8.650;2023-02-18T10:07:04;100410.25;;;13.50;72.20
43119;BME280;28729;49.838;8.650;2023-02-18T10:11:12;100425.28;;;13.54;71.92
43119;BME280;28729;49.838;8.650;2023-02-18T10:15:21;100417.91;;;13.43;69.14
43119;BME280;28729;49.838;8.650;2023-02-18T10:19:37;100424.06;;;13.45;70.66
43119;BME280;28729;49.838;8.650;2023-02-18T10:23:50;100436.03;;;13.51;70.91
43119;BME280;28729;49.838;8.650;2023-02-18T10:27:53;100447.97;;;13.34;67.77
43119;BME280;28729;49.838;8.650;2023-02-18T10:32:03;100427.63;;;13.62;69.19
43119;BME280;28729;49.838;8.650;2023-02-18T10:50:00;100414.13;;;13.88;67.42
43119;BME280;28729;49.838;8.650;2023-02-18T10:54:02;100421.00;;;13.85;66.21
43119;BME280;28729;49.838;8.650;2023-02-18T11:02:29;100409.16;;;13.90;66.91
43119;BME280;28729;49.838;8.650;2023-02-18T11:06:40;100413.91;;;13.95;66.85
43119;BME280;28729;49.838;8.650;2023-02-18T11:10:44;100419.25;;;13.79;66.25
43119;BME280;28729;49.838;8.650;2023-02-18T11:14:49;100409.22;;;13.73;65.96
43119;BME280;28729;49.838;8.650;2023-02-18T11:18:52;100404.50;;;13.52;66.21
43119;BME280;28729;49.838;8.650;2023-02-18T11:23:13;100402.22;;;13.49;67.74
43119;BME280;28729;49.838;8.650;2023-02-18T11:27:26;100407.03;;;13.36;67.02
43119;BME280;28729;49.838;8.650;2023-02-18T11:31:39;100394.03;;;13.37;67.95
43119;BME280;28729;49.838;8.650;2023-02-18T11:35:56;100393.44;;;13.35;69.00
43119;BME280;28729;49.838;8.650;2023-02-18T11:39:58;100392.28;;;13.31;68.84
43119;BME280;28729;49.838;8.650;2023-02-18T11:44:01;100385.38;;;13.16;66.24
43119;BME280;28729;49.838;8.650;2023-02-18T11:48:17;100391.78;;;13.34;64.09
43119;BME280;28729;49.838;8.650;2023-02-18T11:52:26;100379.03;;;13.33;66.02
43119;BME280;28729;49.838;8.650;2023-02-18T11:56:34;100358.56;;;13.34;66.25
43119;BME280;28729;49.838;8.650;2023-02-18T12:04:45;100358.38;;;13.40;67.09
43119;BME280;28729;49.838;8.650;2023-02-18T12:08:50;100332.75;;;13.50;65.65
43119;BME280;28729;49.838;8.650;2023-02-18T12:13:06;100325.94;;;13.58;66.43
43119;BME280;28729;49.838;8.650;2023-02-18T12:17:28;100332.09;;;13.65;65.66
43119;BME280;28729;49.838;8.650;2023-02-18T12:30:43;100295.50;;;13.85;65.25
43119;BME280;28729;49.838;8.650;2023-02-18T12:35:06;100296.19;;;13.97;64.36
43119;BME280;28729;49.838;8.650;2023-02-18T12:48:14;100292.72;;;13.58;66.36
43119;BME280;28729;49.838;8.650;2023-02-18T12:52:37;100275.97;;;13.48;67.22
43119;BME280;28729;49.838;8.650;2023-02-18T13:01:11;100264.63;;;13.49;67.77
43119;BME280;28729;49.838;8.650;2023-02-18T13:05:34;100282.91;;;13.50;68.05
43119;BME280;28729;49.838;8.650;2023-02-18T13:14:17;100267.53;;;13.59;68.27
43119;BME280;28729;49.838;8.650;2023-02-18T13:18:33;100274.44;;;13.57;69.09
43119;BME280;28729;49.838;8.650;2023-02-18T13:22:37;100274.75;;;13.60;69.27
43119;BME280;28729;49.838;8.650;2023-02-18T13:26:40;100268.81;;;13.52;68.78
43119;BME280;28729;49.838;8.650;2023-02-18T13:30:49;100264.44;;;13.56;68.57
43119;BME280;28729;49.838;8.650;2023-02-18T13:35:18;100258.66;;;13.57;69.52
43119;BME280;28729;49.838;8.650;2023-02-18T13:39:23;100268.63;;;13.58;69.40
43119;BME280;28729;49.838;8.650;2023-02-18T13:43:33;100257.81;;;13.57;69.71
43119;BME280;28729;49.838;8.650;2023-02-18T13:47:41;100258.34;;;13.54;69.66
43119;BME280;28729;49.838;8.650;2023-02-18T13:51:45;100261.50;;;13.62;69.27
43119;BME280;28729;49.838;8.650;2023-02-18T13:56:19;100273.41;;;13.63;68.54
43119;BME280;28729;49.838;8.650;2023-02-18T14:00:24;100273.63;;;13.61;69.58
43119;BME280;28729;49.838;8.650;2023-02-18T14:08:40;100265.84;;;13.58;71.28
43119;BME280;28729;49.838;8.650;2023-02-18T14:21:22;100281.38;;;13.37;73.38
43119;BME280;28729;49.838;8.650;2023-02-18T14:25:38;100260.41;;;13.41;72.40
43119;BME280;28729;49.838;8.650;2023-02-18T14:29:41;100274.09;;;13.53;72.01
43119;BME280;28729;49.838;8.650;2023-02-18T14:38:40;100291.22;;;13.50;72.76
43119;BME280;28729;49.838;8.650;2023-02-18T14:42:58;100294.63;;;13.35;74.14
43119;BME280;28729;49.838;8.650;2023-02-18T14:47:19;100287.94;;;13.31;74.76
43119;BME280;28729;49.838;8.650;2023-02-18T14:51:30;100280.16;;;13.28;75.64
43119;BME280;28729;49.838;8.650;2023-02-18T14:55:37;100286.28;;;13.13;78.23
43119;BME280;28729;49.838;8.650;2023-02-18T14:59:42;100289.34;;;12.95;82.19
43119;BME280;28729;49.838;8.650;2023-02-18T15:03:45;100279.47;;;12.82;82.08
43119;BME280;28729;49.838;8.650;2023-02-18T15:12:07;100292.28;;;12.71;83.74
43119;BME280;28729;49.838;8.650;2023-02-18T15:16:26;100288.94;;;12.69;83.60
43119;BME280;28729;49.838;8.650;2023-02-18T15:20:32;100285.66;;;12.72;83.30
43119;BME280;28729;49.838;8.650;2023-02-18T15:24:37;100285.00;;;12.82;82.34
43119;BME280;28729;49.838;8.650;2023-02-18T15:29:04;100285.66;;;12.89;81.27
43119;BME280;28729;49.838;8.650;2023-02-18T15:33:10;100283.41;;;12.86;80.66
43119;BME280;28729;49.838;8.650;2023-02-18T15:37:13;100287.06;;;12.92;80.08
43119;BME280;28729;49.838;8.650;2023-02-18T15:41:16;100286.16;;;12.86;79.95
43119;BME280;28729;49.838;8.650;2023-02-18T15:45:24;100274.81;;;12.88;80.31
43119;BME280;28729;49.838;8.650;2023-02-18T15:49:30;100279.84;;;12.91;80.08
43119;BME280;28729;49.838;8.650;2023-02-18T15:53:32;100279.28;;;12.89;80.18
43119;BME280;28729;49.838;8.650;2023-02-18T15:57:38;100286.47;;;12.90;79.61
43119;BME280;28729;49.838;8.650;2023-02-18T16:01:40;100287.50;;;12.84;79.85
43119;BME280;28729;49.838;8.650;2023-02-18T16:05:42;100296.31;;;12.81;80.09
43119;BME280;28729;49.838;8.650;2023-02-18T16:09:43;100297.97;;;12.82;80.29
43119;BME280;28729;49.838;8.650;2023-02-18T16:13:46;100299.06;;;12.81;80.88
43119;BME280;28729;49.838;8.650;2023-02-18T16:17:48;100289.66;;;12.82;80.78
43119;BME280;28729;49.838;8.650;2023-02-18T16:21:50;100306.94;;;12.72;81.35
43119;BME280;28729;49.838;8.650;2023-02-18T16:25:52;100307.72;;;12.67;82.21
43119;BME280;28729;49.838;8.650;2023-02-18T16:29:58;100302.19;;;12.67;82.06
43119;BME280;28729;49.838;8.650;2023-02-18T16:34:01;100308.72;;;12.61;82.31
43119;BME280;28729;49.838;8.650;2023-02-18T16:38:03;100302.50;;;12.54;83.28
43119;BME280;28729;49.838;8.650;2023-02-18T16:42:09;100316.22;;;12.49;83.48
43119;BME280;28729;49.838;8.650;2023-02-18T16:46:17;100313.47;;;12.49;83.46
43119;BME280;28729;49.838;8.650;2023-02-18T16:50:20;100315.34;;;12.43;83.95
43119;BME280;28729;49.838;8.650;2023-02-18T16:54:23;100320.50;;;12.40;84.35
43119;BME280;28729;49.838;8.650;2023-02-18T16:58:24;100314.97;;;12.40;84.51
43119;BME280;28729;49.838;8.650;2023-02-18T17:02:27;100317.91;;;12.33;85.11
43119;BME280;28729;49.838;8.650;2023-02-18T17:06:31;100321.25;;;12.35;85.16
43119;BME280;28729;49.838;8.650;2023-02-18T17:10:33;100322.00;;;12.30;85.60
43119;BME280;28729;49.838;8.650;2023-02-18T17:14:35;100328.28;;;12.26;85.94
43119;BME280;28729;49.838;8.650;2023-02-18T17:18:39;100329.03;;;12.21;86.16
43119;BME280;28729;49.838;8.650;2023-02-18T17:22:42;100330.69;;;12.22;86.17
43119;BME280;28729;49.838;8.650;2023-02-18T17:26:44;100330.84;;;12.16;86.72
43119;BME280;28729;49.838;8.650;2023-02-18T17:30:49;100335.19;;;12.12;87.40
43119;BME280;28729;49.838;8.650;2023-02-18T17:34:54;100341.31;;;12.14;86.84
43119;BME280;28729;49.838;8.650;2023-02-18T17:38:57;100353.09;;;12.09;88.06
43119;BME280;28729;49.838;8.650;2023-02-18T17:42:58;100345.31;;;12.06;87.69
43119;BME280;28729;49.838;8.650;2023-02-18T17:47:00;100345.41;;;12.11;87.57
43119;BME280;28729;49.838;8.650;2023-02-18T17:51:03;100336.53;;;12.09;87.98
43119;BME280;28729;49.838;8.650;2023-02-18T17:55:18;100341.44;;;12.07;88.05
43119;BME280;28729;49.838;8.650;2023-02-18T17:59:21;100336.41;;;12.04;88.18
43119;BME280;28729;49.838;8.650;2023-02-18T18:03:23;100338.63;;;12.02;88.42
43119;BME280;28729;49.838;8.650;2023-02-18T18:07:25;100343.88;;;12.03;87.93
43119;BME280;28729;49.838;8.650;2023-02-18T18:11:27;100351.81;;;12.00;88.44
43119;BME280;28729;49.838;8.650;2023-02-18T18:15:36;100352.53;;;11.95;88.99
43119;BME280;28729;49.838;8.650;2023-02-18T18:19:39;100357.72;;;11.92;89.68
43119;BME280;28729;49.838;8.650;2023-02-18T18:23:40;100360.97;;;11.89;90.52
43119;BME280;28729;49.838;8.650;2023-02-18T18:27:42;100366.34;;;11.83;91.49
43119;BME280;28729;49.838;8.650;2023-02-18T18:31:44;100369.88;;;11.79;92.32
43119;BME280;28729;49.838;8.650;2023-02-18T18:35:47;100372.28;;;11.75;93.35
43119;BME280;28729;49.838;8.650;2023-02-18T18:39:53;100373.13;;;11.76;93.02
43119;BME280;28729;49.838;8.650;2023-02-18T18:43:54;100372.16;;;11.70;94.38
43119;BME280;28729;49.838;8.650;2023-02-18T18:47:56;100375.41;;;11.67;95.10
43119;BME280;28729;49.838;8.650;2023-02-18T18:51:58;100368.72;;;11.63;95.46
43119;BME280;28729;49.838;8.650;2023-02-18T18:56:03;100377.84;;;11.63;95.30
43119;BME280;28729;49.838;8.650;2023-02-18T19:00:05;100378.06;;;11.62;95.71
43119;BME280;28729;49.838;8.650;2023-02-18T19:04:09;100375.28;;;11.62;95.53
43119;BME280;28729;49.838;8.650;2023-02-18T19:08:12;100377.44;;;11.60;95.70
43119;BME280;28729;49.838;8.650;2023-02-18T19:12:14;100379.63;;;11.58;95.65
43119;BME280;28729;49.838;8.650;2023-02-18T19:16:18;100377.44;;;11.60;95.57
43119;BME280;28729;49.838;8.650;2023-02-18T19:20:22;100375.66;;;11.54;96.52
43119;BME280;28729;49.838;8.650;2023-02-18T19:24:24;100373.38;;;11.51;96.76
43119;BME280;28729;49.838;8.650;2023-02-18T19:28:26;100374.59;;;11.55;96.48
43119;BME280;28729;49.838;8.650;2023-02-18T19:32:28;100364.03;;;11.52;96.67
43119;BME280;28729;49.838;8.650;2023-02-18T19:36:30;100367.16;;;11.44;97.93
43119;BME280;28729;49.838;8.650;2023-02-18T19:40:32;100356.47;;;11.47;97.18
43119;BME280;28729;49.838;8.650;2023-02-18T19:44:33;100365.50;;;11.43;98.31
43119;BME280;28729;49.838;8.650;2023-02-18T19:48:35;100359.50;;;11.46;98.07
43119;BME280;28729;49.838;8.650;2023-02-18T19:52:37;100368.00;;;11.44;98.59
43119;BME280;28729;49.838;8.650;2023-02-18T19:56:38;100363.09;;;11.46;98.43
43119;BME280;28729;49.838;8.650;2023-02-18T20:00:40;100354.47;;;11.43;98.92
43119;BME280;28729;49.838;8.650;2023-02-18T20:04:44;100347.25;;;11.41;99.28
43119;BME280;28729;49.838;8.650;2023-02-18T20:08:46;100354.47;;;11.43;98.90
43119;BME280;28729;49.838;8.650;2023-02-18T20:12:51;100348.56;;;11.39;99.54
43119;BME280;28729;49.838;8.650;2023-02-18T20:16:54;100352.19;;;11.39;99.62
43119;BME280;28729;49.838;8.650;2023-02-18T20:20:56;100341.88;;;11.35;99.99
43119;BME280;28729;49.838;8.650;2023-02-18T20:24:58;100348.69;;;11.32;100.00
43119;BME280;28729;49.838;8.650;2023-02-18T20:29:00;100349.19;;;11.29;100.00
43119;BME280;28729;49.838;8.650;2023-02-18T20:33:01;100345.72;;;11.34;100.00
43119;BME280;28729;49.838;8.650;2023-02-18T20:37:03;100343.94;;;11.28;100.00
43119;BME280;28729;49.838;8.650;2023-02-18T20:41:08;100336.97;;;11.25;100.00
43119;BME280;28729;49.838;8.650;2023-02-18T20:45:10;100338.03;;;11.24;100.00
43119;BME280;28729;49.838;8.650;2023-02-18T20:49:14;100331.47;;;11.13;100.00
43119;BME280;28729;49.838;8.650;2023-02-18T20:53:16;100333.88;;;11.22;100.00
43119;BME280;28729;49.838;8.650;2023-02-18T20:57:18;100338.03;;;11.24;100.00
43119;BME280;28729;49.838;8.650;2023-02-18T21:01:19;100328.69;;;11.25;100.00
43119;BME280;28729;49.838;8.650;2023-02-18T21:05:21;100323.19;;;11.25;100.00
43119;BME280;28729;49.838;8.650;2023-02-18T21:09:23;100328.09;;;11.23;100.00
43119;BME280;28729;49.838;8.650;2023-02-18T21:13:25;100330.25;;;11.21;100.00
43119;BME280;28729;49.838;8.650;2023-02-18T21:17:26;100319.59;;;11.25;99.71
43119;BME280;28729;49.838;8.650;2023-02-18T21:21:28;100323.06;;;11.20;99.59
43119;BME280;28729;49.838;8.650;2023-02-18T21:25:30;100312.03;;;11.20;99.19
43119;BME280;28729;49.838;8.650;2023-02-18T21:29:32;100320.28;;;11.20;98.68
43119;BME280;28729;49.838;8.650;2023-02-18T21:33:34;100309.53;;;11.18;98.27
43119;BME280;28729;49.838;8.650;2023-02-18T21:37:36;100312.84;;;11.21;97.98
43119;BME280;28729;49.838;8.650;2023-02-18T21:41:38;100314.44;;;11.16;97.89
43119;BME280;28729;49.838;8.650;2023-02-18T21:45:41;100308.44;;;11.20;97.70
43119;BME280;28729;49.838;8.650;2023-02-18T21:49:43;100307.09;;;11.22;97.39
43119;BME280;28729;49.838;8.650;2023-02-18T21:53:44;100309.75;;;11.17;97.89
43119;BME280;28729;49.838;8.650;2023-02-18T21:57:46;100312.50;;;11.17;98.04
43119;BME280;28729;49.838;8.650;2023-02-18T22:01:48;100302.31;;;11.17;97.95
43119;BME280;28729;49.838;8.650;2023-02-18T22:05:50;100289.34;;;11.18;97.82
43119;BME280;28729;49.838;8.650;2023-02-18T22:09:52;100292.25;;;11.11;98.65
43119;BME280;28729;49.838;8.650;2023-02-18T22:13:54;100282.41;;;11.15;98.23
43119;BME280;28729;49.838;8.650;2023-02-18T22:17:56;100282.66;;;11.14;98.66
43119;BME280;28729;49.838;8.650;2023-02-18T22:21:57;100274.38;;;11.14;98.59
43119;BME280;28729;49.838;8.650;2023-02-18T22:26:03;100276.28;;;11.13;98.93
43119;BME280;28729;49.838;8.650;2023-02-18T22:30:06;100275.69;;;11.11;99.10
43119;BME280;28729;49.838;8.650;2023-02-18T22:34:08;100264.53;;;11.18;98.59
43119;BME280;28729;49.838;8.650;2023-02-18T22:38:10;100274.03;;;11.10;99.43
43119;BME280;28729;49.838;8.650;2023-02-18T22:42:11;100272.72;;;11.13;99.22
43119;BME280;28729;49.838;8.650;2023-02-18T22:46:17;100274.03;;;11.10;99.52
43119;BME280;28729;49.838;8.650;2023-02-18T22:50:19;100275.81;;;11.16;98.74
43119;BME280;28729;49.838;8.650;2023-02-18T22:54:20;100267.41;;;11.23;98.19
43119;BME280;28729;49.838;8.650;2023-02-18T22:58:22;100254.84;;;11.15;99.02